This is the latest recevied weather packets stored in our database for station/object KC1TLF-15. If no packets are shown the sender has not sent any weather packets the latest 10 day(s).
| Time | Temp. | Humidity | Pressure | Rain* | Wind** | Luminosity | Snow |
|---|---|---|---|---|---|---|---|
| 1777988469 | 21.67° C | 53% | 1017.7 hPa | 0 mm | 1.79 m/s, 195° | 530 W/m² | - |
| 1777987871 | 20.56° C | 56% | 1017.7 hPa | 0 mm | 0.45 m/s, 293° | 407 W/m² | - |
| 1777987270 | 19.44° C | 60% | 1017.5 hPa | 0 mm | 0.45 m/s, 342° | 193 W/m² | - |
| 1777986670 | 16.67° C | 69% | 1017.6 hPa | 0 mm | 0 m/s | 440 W/m² | - |
| 1777986070 | 16.67° C | 69% | 1017.6 hPa | 0 mm | 0 m/s | - | - |
| 1777985470 | 17.78° C | 66% | 1017.7 hPa | 0 mm | 0 m/s | - | - |
| 1777984869 | 19.44° C | 58% | 1017.6 hPa | 0 mm | 0 m/s | - | - |
| 1777984270 | 19.44° C | 58% | 1017.6 hPa | 0 mm | 0.89 m/s, 153° | 391 W/m² | - |
| 1777983670 | 18.33° C | 60% | 1017.4 hPa | 0 mm | 0.45 m/s, 320° | 412 W/m² | - |
| 1777983070 | 16.67° C | 66% | 1017.6 hPa | 0 mm | 0 m/s | 312 W/m² | - |
| 1777982470 | 16.67° C | 67% | 1017.7 hPa | 0 mm | 0 m/s | 311 W/m² | - |
| 1777981869 | 16.11° C | 67% | 1017.6 hPa | 0 mm | 0 m/s | 173 W/m² | - |
| 1777981269 | 15.56° C | 68% | 1017.6 hPa | 0 mm | 0 m/s | - | - |
| 1777980670 | 15.56° C | 69% | 1017.4 hPa | 0 mm | 0 m/s | - | - |
| 1777980071 | 15.56° C | 68% | 1017.5 hPa | 0 mm | 0 m/s | 162 W/m² | - |
| 1777979469 | 15° C | 70% | 1017.6 hPa | 0 mm | 0 m/s | 133 W/m² | - |
| 1777978876 | 14.44° C | 71% | 1017.3 hPa | 0 mm | 0 m/s | - | - |
| 1777978270 | 13.89° C | 73% | 1017.2 hPa | 0 mm | 0 m/s | - | - |
| 1777977670 | 13.33° C | 75% | 1017.3 hPa | 0 mm | 0 m/s | - | - |
| 1777977070 | 12.78° C | 77% | 1017.3 hPa | 0 mm | 0 m/s | - | - |
| 1777976469 | 11.67° C | 80% | 1017.5 hPa | 0 mm | 0 m/s | - | - |
| 1777975869 | 11.67° C | 80% | 1017.2 hPa | 0 mm | 0 m/s | - | - |
| 1777975270 | 11.67° C | 79% | 1017.5 hPa | 0 mm | 0 m/s | - | - |
| 1777974670 | 11.67° C | 79% | 1017.3 hPa | 0 mm | 0 m/s | - | - |
| 1777974144 | 11.67° C | 78% | 1017.4 hPa | 0 mm | 0 m/s | - | - |
* Rain latest hour (hover to see other rain measurements)
** Current wind speed in m/s (hover to see current wind gust speed)